Time;durP1;ratioP1;P1;durP2;ratioP2;P2;SDS_P1;SDS_P2;PMS_P1;PMS_P2;Temp;Humidity;BMP_temperature;BMP_pressure;BME280_temperature;BME280_humidity;BME280_pressure;Samples;Min_cycle;Max_cycle;Signal;HPM_P1;HPM_P2
2022/02/07 00:00:37;;;;;;;;;;;;;;;3.94;100.00;98946.31;5129216;27;19927;-77
2022/02/07 00:03:13;;;;;;;;;;;;;;;3.95;100.00;98958.16;5114431;28;19931;-77
2022/02/07 00:05:40;;;;;;;;;;;;;;;3.94;100.00;98957.38;5124391;27;19965;-77
2022/02/07 00:08:09;;;;;;;;;;;;;;;3.95;100.00;98983.84;5119906;27;20377;-77
2022/02/07 00:10:38;;;;;;;;;;;;;;;3.97;100.00;98983.47;5138010;27;19923;-77
2022/02/07 00:13:05;;;;;;;;;;;;;;;3.93;100.00;98988.16;5119350;27;20014;-77
2022/02/07 00:15:34;;;;;;;;;;;;;;;4.02;100.00;99011.56;5102637;27;19934;-77
2022/02/07 00:18:02;;;;;;;;;;;;;;;3.92;100.00;99009.50;5111236;28;19923;-77
2022/02/07 00:20:29;;;;;;;;;;;;;;;4.19;100.00;99023.94;5117295;28;20031;-77
2022/02/07 00:22:57;;;;;;;;;;;;;;;4.24;100.00;99032.69;5117263;28;20022;-77
2022/02/07 00:25:24;;;;;;;;;;;;;;;4.02;100.00;99041.16;5117227;28;20005;-77
2022/02/07 00:27:51;;;;;;;;;;;;;;;4.04;100.00;99039.63;5116795;28;19924;-77
2022/02/07 00:30:19;;;;;;;;;;;;;;;4.12;100.00;99038.50;5099135;28;20015;-77
2022/02/07 00:32:48;;;;;;;;;;;;;;;3.90;100.00;99047.78;5117014;28;20459;-77
2022/02/07 00:35:20;;;;;;;;;;;;;;;4.04;100.00;99075.56;5098865;28;20430;-77
2022/02/07 00:37:49;;;;;;;;;;;;;;;3.98;100.00;99066.03;5081749;28;20278;-77
2022/02/07 00:43:00;;;;;;;;;;;;;;;4.11;100.00;99070.09;5098541;28;19928;-77
2022/02/07 00:48:05;;;;;;;;;;;;;;;3.98;100.00;99077.09;5116786;28;19923;-77
2022/02/07 00:50:38;;;;;;;;;;;;;;;4.00;100.00;99090.53;5098554;28;19924;-77
2022/02/07 00:53:06;;;;;;;;;;;;;;;3.96;100.00;99087.72;5081636;28;20382;-77
2022/02/07 00:55:33;;;;;;;;;;;;;;;3.85;100.00;99117.22;5098518;27;19924;-77
2022/02/07 00:58:01;;;;;;;;;;;;;;;3.85;100.00;99131.03;5118618;27;19927;-77
2022/02/07 01:00:29;;;;;;;;;;;;;;;3.94;100.00;99128.75;5118845;27;20374;-77
2022/02/07 01:02:56;;;;;;;;;;;;;;;4.01;100.00;99134.41;5137077;27;19991;-77
2022/02/07 01:05:24;;;;;;;;;;;;;;;3.92;100.00;99150.47;5118689;27;20054;-77
2022/02/07 01:07:53;;;;;;;;;;;;;;;4.08;100.00;99156.56;5101725;27;19927;-77
2022/02/07 01:10:28;;;;;;;;;;;;;;;3.93;100.00;99154.81;5106022;28;20018;-77
2022/02/07 01:49:42;;;;;;;;;;;;;;;4.24;100.00;99248.41;5035942;28;19924;-77
2022/02/07 01:54:37;;;;;;;;;;;;;;;4.11;100.00;99255.38;5025775;28;19932;-77
2022/02/07 01:57:12;;;;;;;;;;;;;;;4.02;100.00;99274.22;5039420;28;19931;-77
2022/02/07 01:59:40;;;;;;;;;;;;;;;4.07;100.00;99271.13;5055907;28;19925;-77
2022/02/07 02:02:09;;;;;;;;;;;;;;;4.39;100.00;99275.06;5039486;28;20295;-77
2022/02/07 02:04:37;;;;;;;;;;;;;;;4.05;100.00;99276.22;5055694;28;19949;-77
2022/02/07 02:07:06;;;;;;;;;;;;;;;3.82;100.00;99285.78;5055558;28;19925;-77
2022/02/07 02:09:34;;;;;;;;;;;;;;;3.93;100.00;99284.75;5055099;28;19931;-77
2022/02/07 02:12:05;;;;;;;;;;;;;;;4.14;100.00;99287.00;5038264;28;19940;-77
2022/02/07 02:14:56;;;;;;;;;;;;;;;4.04;100.00;99307.84;5098782;28;19924;-77
2022/02/07 02:36:41;;;;;;;;;;;;;;;4.22;100.00;99342.06;5031895;28;20324;-77
2022/02/07 02:47:25;;;;;;;;;;;;;;;4.15;100.00;99330.09;5015441;28;19925;-77
2022/02/07 02:50:09;;;;;;;;;;;;;;;4.08;100.00;99332.75;5015422;28;19972;-77
2022/02/07 02:52:39;;;;;;;;;;;;;;;3.93;100.00;99339.25;5015056;28;19925;-77
2022/02/07 02:55:08;;;;;;;;;;;;;;;4.07;100.00;99343.03;5015161;28;19925;-76
2022/02/07 02:57:35;;;;;;;;;;;;;;;3.97;100.00;99357.47;4998874;28;20353;-76
2022/02/07 03:00:04;;;;;;;;;;;;;;;3.88;100.00;99368.00;5049326;28;19927;-77
2022/02/07 03:02:32;;;;;;;;;;;;;;;4.18;100.00;99371.59;5096670;28;19923;-76
2022/02/07 03:04:59;;;;;;;;;;;;;;;3.99;100.00;99357.91;5079615;28;19931;-77
2022/02/07 03:07:26;;;;;;;;;;;;;;;4.02;100.00;99372.94;5079155;28;19924;-77
2022/02/07 03:09:55;;;;;;;;;;;;;;;4.33;100.00;99380.91;5079532;28;19931;-77
2022/02/07 03:12:22;;;;;;;;;;;;;;;4.16;100.00;99385.03;5092754;28;19931;-77
2022/02/07 03:14:50;;;;;;;;;;;;;;;4.29;100.00;99388.34;5075898;28;20454;-77
2022/02/07 03:17:17;;;;;;;;;;;;;;;4.48;100.00;99400.13;5075926;28;19924;-77
2022/02/07 03:19:44;;;;;;;;;;;;;;;4.60;100.00;99404.59;5059586;28;19928;-76
2022/02/07 03:22:11;;;;;;;;;;;;;;;4.41;100.00;99418.59;5092520;28;19924;-77
2022/02/07 03:24:39;;;;;;;;;;;;;;;4.26;100.00;99433.34;5094061;28;19932;-77
2022/02/07 03:27:28;;;;;;;;;;;;;;;4.63;100.00;99442.59;5092772;28;19931;-77
2022/02/07 03:29:58;;;;;;;;;;;;;;;4.66;100.00;99452.91;5109842;28;19924;-77
2022/02/07 03:32:36;;;;;;;;;;;;;;;4.65;100.00;99460.41;5092802;28;19924;-77
2022/02/07 03:35:07;;;;;;;;;;;;;;;4.67;100.00;99477.47;5097959;28;20304;-77
2022/02/07 03:37:34;;;;;;;;;;;;;;;4.83;100.00;99475.28;5096494;28;19924;-77
2022/02/07 03:40:02;;;;;;;;;;;;;;;4.54;100.00;99465.03;5080100;28;20045;-77
2022/02/07 03:42:31;;;;;;;;;;;;;;;4.43;100.00;99464.06;5097151;28;19931;-78
2022/02/07 03:45:02;;;;;;;;;;;;;;;4.70;100.00;99470.38;5079821;28;20363;-77
2022/02/07 03:47:33;;;;;;;;;;;;;;;4.67;100.00;99469.16;5080666;28;19924;-77
2022/02/07 03:50:00;;;;;;;;;;;;;;;4.54;100.00;99472.53;5079715;28;19946;-77
2022/02/07 03:52:30;;;;;;;;;;;;;;;4.53;100.00;99474.47;5080001;28;20026;-78
2022/02/07 03:54:57;;;;;;;;;;;;;;;3.92;100.00;99481.41;5096341;28;19924;-77
2022/02/07 03:57:24;;;;;;;;;;;;;;;3.92;100.00;99473.94;5096451;28;19932;-77
2022/02/07 03:59:51;;;;;;;;;;;;;;;4.37;100.00;99484.94;5079386;28;19931;-77
2022/02/07 04:02:21;;;;;;;;;;;;;;;4.35;100.00;99475.38;5096340;28;20303;-77
2022/02/07 04:04:56;;;;;;;;;;;;;;;4.39;100.00;99490.09;5079163;28;19931;-77
2022/02/07 04:07:23;;;;;;;;;;;;;;;4.18;100.00;99487.78;5079367;28;19923;-77
2022/02/07 04:09:54;;;;;;;;;;;;;;;4.06;100.00;99485.22;5079499;28;19931;-77
2022/02/07 04:12:25;;;;;;;;;;;;;;;4.24;100.00;99478.00;5096024;28;19951;-77
2022/02/07 04:15:09;;;;;;;;;;;;;;;4.22;100.00;99480.34;5080578;28;19931;-77
2022/02/07 04:17:54;;;;;;;;;;;;;;;4.26;100.00;99477.63;5080824;28;19924;-77
2022/02/07 04:20:22;;;;;;;;;;;;;;;4.24;100.00;99491.81;5095667;28;19955;-77
2022/02/07 04:22:50;;;;;;;;;;;;;;;3.95;100.00;99484.25;5112936;28;19966;-77
2022/02/07 04:25:34;;;;;;;;;;;;;;;4.28;100.00;99486.34;5095796;28;19932;-77
2022/02/07 04:28:22;;;;;;;;;;;;;;;3.90;100.00;99483.75;5095850;28;19924;-77
2022/02/07 04:30:50;;;;;;;;;;;;;;;4.26;100.00;99478.44;5095842;28;19924;-77
2022/02/07 04:33:19;;;;;;;;;;;;;;;4.08;100.00;99482.88;5078744;28;20303;-77
2022/02/07 04:35:47;;;;;;;;;;;;;;;4.31;100.00;99480.88;5095451;28;20351;-77
2022/02/07 04:38:14;;;;;;;;;;;;;;;4.43;100.00;99500.03;5095548;28;19928;-78
2022/02/07 04:40:43;;;;;;;;;;;;;;;4.20;100.00;99499.28;5078558;28;19931;-77
2022/02/07 04:43:13;;;;;;;;;;;;;;;4.12;100.00;99505.84;5095560;28;19951;-77
2022/02/07 04:46:11;;;;;;;;;;;;;;;4.25;100.00;99521.09;5094909;28;19938;-77
2022/02/07 04:51:41;;;;;;;;;;;;;;;4.35;100.00;99508.59;5078285;28;20348;-77
2022/02/07 04:59:27;;;;;;;;;;;;;;;4.22;100.00;99508.00;5098704;28;19931;-77
2022/02/07 05:02:05;;;;;;;;;;;;;;;4.32;100.00;99520.38;5115600;28;19931;-77
2022/02/07 05:04:39;;;;;;;;;;;;;;;4.22;100.00;99510.78;5115216;28;19969;-77
2022/02/07 05:15:25;;;;;;;;;;;;;;;4.05;100.00;99497.44;5098209;28;19928;-77
2022/02/07 05:17:52;;;;;;;;;;;;;;;4.12;100.00;99505.84;5079082;28;19930;-77
2022/02/07 05:20:43;;;;;;;;;;;;;;;4.21;100.00;99527.75;5069999;28;19924;-77
2022/02/07 05:23:28;;;;;;;;;;;;;;;3.90;100.00;99527.97;5056625;28;19925;-77
2022/02/07 05:26:17;;;;;;;;;;;;;;;3.98;100.00;99529.72;5039704;28;19955;-77
2022/02/07 05:29:06;;;;;;;;;;;;;;;4.02;100.00;99525.84;5072883;28;20352;-77
2022/02/07 05:31:47;;;;;;;;;;;;;;;4.33;100.00;99544.91;5039508;28;19931;-77
2022/02/07 05:34:24;;;;;;;;;;;;;;;4.49;100.00;99553.09;5056303;28;19924;-77
2022/02/07 05:37:15;;;;;;;;;;;;;;;4.47;100.00;99567.28;5060700;28;19972;-77
2022/02/07 05:39:58;;;;;;;;;;;;;;;4.71;100.00;99566.88;5019983;28;20051;-77
2022/02/07 05:42:39;;;;;;;;;;;;;;;4.81;100.00;99566.25;5036476;28;19931;-77
2022/02/07 05:45:28;;;;;;;;;;;;;;;4.85;100.00;99572.63;5036288;28;20020;-77
2022/02/07 05:48:05;;;;;;;;;;;;;;;4.80;100.00;99583.25;5019473;28;20332;-77
2022/02/07 05:50:58;;;;;;;;;;;;;;;4.73;100.00;99595.00;5050645;28;19924;-77
2022/02/07 05:53:44;;;;;;;;;;;;;;;4.64;100.00;99583.38;5052782;28;19925;-77
2022/02/07 05:56:32;;;;;;;;;;;;;;;4.75;100.00;99595.44;5018695;28;20020;-77
2022/02/07 05:59:17;;;;;;;;;;;;;;;4.46;100.00;99596.16;5093912;28;19969;-77
2022/02/07 06:02:04;;;;;;;;;;;;;;;4.48;100.00;99584.69;5076613;28;19973;-77
2022/02/07 06:04:31;;;;;;;;;;;;;;;4.54;100.00;99589.56;5093853;28;19924;-77
2022/02/07 06:06:59;;;;;;;;;;;;;;;4.36;100.00;99599.50;5093751;28;19963;-77
2022/02/07 06:09:27;;;;;;;;;;;;;;;4.33;100.00;99594.72;5093764;28;19924;-77
2022/02/07 06:11:55;;;;;;;;;;;;;;;4.10;100.00;99596.72;5093675;28;19924;-77
2022/02/07 06:14:23;;;;;;;;;;;;;;;4.19;100.00;99605.56;5102199;28;20028;-77
2022/02/07 06:16:51;;;;;;;;;;;;;;;4.34;100.00;99607.41;5110201;28;20543;-77
2022/02/07 06:19:18;;;;;;;;;;;;;;;4.15;100.00;99626.81;5093460;28;20282;-77
2022/02/07 06:21:45;;;;;;;;;;;;;;;4.17;100.00;99634.72;5093485;28;20349;-77
2022/02/07 06:24:12;;;;;;;;;;;;;;;4.33;100.00;99641.75;5093622;28;20268;-77
2022/02/07 06:26:41;;;;;;;;;;;;;;;4.46;100.00;99645.94;5060305;28;19924;-77
2022/02/07 06:29:14;;;;;;;;;;;;;;;4.48;100.00;99657.47;5110347;28;20384;-77
2022/02/07 06:31:48;;;;;;;;;;;;;;;4.43;100.00;99659.72;5110031;28;19932;-77
2022/02/07 06:34:15;;;;;;;;;;;;;;;4.53;100.00;99670.97;5093217;28;19935;-77
2022/02/07 06:36:42;;;;;;;;;;;;;;;4.74;100.00;99676.88;5076307;28;20018;-77
2022/02/07 06:39:12;;;;;;;;;;;;;;;4.57;100.00;99688.47;5093248;28;19930;-77
2022/02/07 06:41:42;;;;;;;;;;;;;;;4.73;100.00;99683.59;5076269;28;19931;-77
2022/02/07 06:44:11;;;;;;;;;;;;;;;4.62;100.00;99701.97;5076328;28;20016;-77
2022/02/07 06:46:40;;;;;;;;;;;;;;;4.83;100.00;99709.88;5093034;28;19924;-77
2022/02/07 06:49:08;;;;;;;;;;;;;;;4.89;100.00;99711.16;5093442;28;19924;-77
2022/02/07 06:51:36;;;;;;;;;;;;;;;4.73;100.00;99711.28;5076072;28;20359;-77
2022/02/07 06:54:03;;;;;;;;;;;;;;;4.77;100.00;99720.44;5092612;28;19931;-77
2022/02/07 06:56:31;;;;;;;;;;;;;;;4.76;100.00;99732.69;5092398;28;20395;-77
2022/02/07 06:58:59;;;;;;;;;;;;;;;4.90;100.00;99741.25;5109230;28;19989;-77
2022/02/07 07:01:30;;;;;;;;;;;;;;;5.12;100.00;99759.00;5075591;28;19924;-77
2022/02/07 07:03:58;;;;;;;;;;;;;;;5.07;100.00;99746.25;5076270;28;19928;-77
2022/02/07 07:06:25;;;;;;;;;;;;;;;5.09;100.00;99755.00;5076021;28;19924;-77
2022/02/07 07:08:58;;;;;;;;;;;;;;;5.11;100.00;99752.69;5075899;28;19947;-77
2022/02/07 07:11:28;;;;;;;;;;;;;;;4.83;100.00;99743.88;5075878;28;19924;-78
2022/02/07 07:14:11;;;;;;;;;;;;;;;5.01;100.00;99763.56;5092527;28;19924;-77
2022/02/07 07:16:50;;;;;;;;;;;;;;;5.07;100.00;99781.50;5092748;28;19939;-77
2022/02/07 07:19:21;;;;;;;;;;;;;;;5.29;100.00;99786.19;5075954;28;19946;-77
2022/02/07 07:21:50;;;;;;;;;;;;;;;5.19;100.00;99782.09;5076322;28;19924;-77
2022/02/07 07:24:17;;;;;;;;;;;;;;;5.12;100.00;99770.88;5091900;28;20260;-77
2022/02/07 07:26:45;;;;;;;;;;;;;;;5.25;100.00;99764.00;5076113;28;20386;-77
2022/02/07 07:29:21;;;;;;;;;;;;;;;5.43;100.00;99775.34;5075673;28;20359;-77
2022/02/07 07:31:56;;;;;;;;;;;;;;;5.54;100.00;99766.00;5092754;28;19959;-76
2022/02/07 07:34:25;;;;;;;;;;;;;;;5.60;100.00;99777.59;5092538;28;20310;-77
2022/02/07 07:36:55;;;;;;;;;;;;;;;5.15;100.00;99774.91;5075873;28;20316;-78
2022/02/07 07:39:23;;;;;;;;;;;;;;;5.39;100.00;99791.91;5076022;28;19924;-77
2022/02/07 07:41:52;;;;;;;;;;;;;;;5.62;100.00;99777.22;5075656;28;20382;-77
2022/02/07 07:44:32;;;;;;;;;;;;;;;5.78;100.00;99775.06;5092185;28;19932;-78
2022/02/07 07:47:14;;;;;;;;;;;;;;;5.87;100.00;99773.66;5092014;28;19924;-77
2022/02/07 07:50:16;;;;;;;;;;;;;;;5.99;100.00;99775.41;5086677;28;20295;-77
2022/02/07 08:03:51;;;;;;;;;;;;;;;5.95;100.00;99786.47;5095514;28;20353;-78
2022/02/07 08:06:26;;;;;;;;;;;;;;;6.10;100.00;99787.44;5112643;28;20349;-77
2022/02/07 08:11:30;;;;;;;;;;;;;;;5.97;100.00;99767.44;5117049;28;19946;-77
2022/02/07 08:14:01;;;;;;;;;;;;;;;6.20;100.00;99767.34;5098985;28;19927;-77
2022/02/07 08:16:31;;;;;;;;;;;;;;;5.88;100.00;99768.94;5098656;28;19999;-78
2022/02/07 08:19:05;;;;;;;;;;;;;;;5.81;100.00;99768.78;5134170;27;20466;-78
2022/02/07 08:21:35;;;;;;;;;;;;;;;6.17;100.00;99776.44;5138003;27;19976;-77
2022/02/07 08:24:04;;;;;;;;;;;;;;;6.22;100.00;99789.97;5119355;27;20389;-78
2022/02/07 08:26:31;;;;;;;;;;;;;;;6.31;100.00;99798.81;5118961;27;20294;-77
2022/02/07 08:28:58;;;;;;;;;;;;;;;6.37;100.00;99787.00;5069023;27;20290;-77
2022/02/07 08:31:25;;;;;;;;;;;;;;;6.21;100.00;99778.06;5119384;27;20382;-77
2022/02/07 08:33:53;;;;;;;;;;;;;;;6.30;100.00;99780.56;5102336;27;20366;-77
2022/02/07 08:36:21;;;;;;;;;;;;;;;6.25;100.00;99772.56;5137468;27;19930;-77
2022/02/07 08:38:48;;;;;;;;;;;;;;;6.44;100.00;99778.75;5108592;28;20382;-77
2022/02/07 08:41:16;;;;;;;;;;;;;;;6.56;100.00;99772.13;5115934;28;19935;-76
2022/02/07 08:43:43;;;;;;;;;;;;;;;6.39;100.00;99778.31;5116958;28;20006;-75
2022/02/07 08:46:11;;;;;;;;;;;;;;;6.18;100.00;99778.03;5118816;27;19928;-75
2022/02/07 08:48:38;;;;;;;;;;;;;;;6.35;100.00;99774.66;5098677;28;20389;-75
2022/02/07 08:51:06;;;;;;;;;;;;;;;6.67;100.00;99781.38;5098409;28;20424;-75
2022/02/07 08:53:40;;;;;;;;;;;;;;;6.73;100.00;99761.22;5098435;28;20399;-75
2022/02/07 08:56:09;;;;;;;;;;;;;;;6.78;100.00;99762.88;5116134;28;20724;-76
2022/02/07 08:58:38;;;;;;;;;;;;;;;6.77;100.00;99758.50;5081743;28;19959;-75
2022/02/07 09:01:16;;;;;;;;;;;;;;;6.97;100.00;99759.88;5098425;28;19939;-76
2022/02/07 09:11:15;;;;;;;;;;;;;;;7.22;100.00;99755.34;5111232;28;19923;-77
2022/02/07 09:13:44;;;;;;;;;;;;;;;7.12;100.00;99747.69;5094525;28;19931;-76
2022/02/07 09:16:23;;;;;;;;;;;;;;;7.05;100.00;99754.00;5112064;27;19972;-76
2022/02/07 09:18:50;;;;;;;;;;;;;;;7.00;100.00;99750.75;5112039;28;20359;-76
2022/02/07 09:21:17;;;;;;;;;;;;;;;7.29;100.00;99758.97;5097508;27;20023;-76
2022/02/07 09:23:47;;;;;;;;;;;;;;;7.09;100.00;99754.03;5114464;27;19923;-75
2022/02/07 09:26:14;;;;;;;;;;;;;;;6.91;100.00;99766.94;5132854;27;19923;-75
2022/02/07 09:28:42;;;;;;;;;;;;;;;6.73;100.00;99765.97;5098014;27;20435;-75
2022/02/07 09:31:10;;;;;;;;;;;;;;;6.48;100.00;99767.69;5115000;27;19923;-78
2022/02/07 09:33:40;;;;;;;;;;;;;;;6.45;100.00;99769.25;5132602;27;20014;-75
2022/02/07 09:36:07;;;;;;;;;;;;;;;6.49;100.00;99755.41;5114414;27;19930;-77
2022/02/07 09:38:34;;;;;;;;;;;;;;;6.10;100.00;99765.25;5132035;27;20397;-76
2022/02/07 09:41:05;;;;;;;;;;;;;;;6.16;100.00;99761.78;5120348;27;19974;-74
2022/02/07 09:43:34;;;;;;;;;;;;;;;5.95;100.00;99774.56;5118350;27;19962;-74
2022/02/07 09:46:07;;;;;;;;;;;;;;;5.92;100.00;99767.81;5118803;27;19924;-74
2022/02/07 09:48:38;;;;;;;;;;;;;;;6.09;100.00;99778.31;5115564;27;20067;-75
2022/02/07 09:51:06;;;;;;;;;;;;;;;6.28;100.00;99769.84;5116012;27;19928;-74
2022/02/07 09:53:34;;;;;;;;;;;;;;;6.45;100.00;99776.78;5113560;27;20361;-74
2022/02/07 09:56:02;;;;;;;;;;;;;;;6.76;100.00;99777.13;5122473;27;19923;-74
2022/02/07 09:58:32;;;;;;;;;;;;;;;6.81;100.00;99773.22;5111604;28;20706;-74
2022/02/07 10:01:02;;;;;;;;;;;;;;;7.38;100.00;99764.19;5111490;28;20083;-74
2022/02/07 10:03:42;;;;;;;;;;;;;;;7.75;100.00;99776.00;5111766;28;19977;-76
2022/02/07 10:09:19;;;;;;;;;;;;;;;7.93;100.00;99776.09;5012046;28;20627;-80
2022/02/07 10:12:01;;;;;;;;;;;;;;;8.27;100.00;99771.94;5012275;28;19931;-75
2022/02/07 10:36:37;;;;;;;;;;;;;;;8.59;100.00;99751.34;5029912;28;20010;-75
2022/02/07 10:39:24;;;;;;;;;;;;;;;8.61;100.00;99743.41;5017157;28;20358;-75
2022/02/07 10:44:35;;;;;;;;;;;;;;;8.87;100.00;99734.72;5046168;28;20019;-75
2022/02/07 10:47:09;;;;;;;;;;;;;;;8.74;100.00;99727.91;5111151;28;19977;-73
2022/02/07 10:49:37;;;;;;;;;;;;;;;8.72;100.00;99721.94;5120563;27;19927;-74
2022/02/07 10:52:04;;;;;;;;;;;;;;;8.79;100.00;99715.56;5118797;27;19924;-74
2022/02/07 10:54:31;;;;;;;;;;;;;;;8.98;100.00;99713.19;5109395;27;20068;-74
2022/02/07 10:57:05;;;;;;;;;;;;;;;8.89;100.00;99710.00;5112398;27;20274;-75
2022/02/07 10:59:32;;;;;;;;;;;;;;;9.12;100.00;99707.63;5111464;27;19924;-75
2022/02/07 11:04:38;;;;;;;;;;;;;;;9.09;100.00;99707.63;5111022;28;19931;-75
2022/02/07 11:07:06;;;;;;;;;;;;;;;8.65;100.00;99710.78;5092683;28;19932;-75
2022/02/07 11:12:37;;;;;;;;;;;;;;;9.31;100.00;99705.63;5110398;28;19930;-74
2022/02/07 11:23:24;;;;;;;;;;;;;;;8.98;100.00;99679.75;5110206;28;19973;-74
2022/02/07 11:25:58;;;;;;;;;;;;;;;9.23;100.00;99676.16;5110024;28;19927;-76
2022/02/07 11:28:27;;;;;;;;;;;;;;;9.00;100.00;99677.38;5091876;28;19934;-75
2022/02/07 11:31:04;;;;;;;;;;;;;;;9.05;100.00;99674.19;5092619;28;19930;-75
2022/02/07 11:33:34;;;;;;;;;;;;;;;8.80;100.00;99647.50;5110781;28;20018;-75
2022/02/07 11:36:03;;;;;;;;;;;;;;;9.06;100.00;99674.97;5110006;28;19923;-75
2022/02/07 11:38:30;;;;;;;;;;;;;;;9.11;100.00;99671.78;5110193;28;19928;-75
2022/02/07 11:41:02;;;;;;;;;;;;;;;8.96;100.00;99684.94;5110512;28;20000;-75
2022/02/07 11:43:31;;;;;;;;;;;;;;;8.87;100.00;99680.97;5092693;28;19954;-74
2022/02/07 11:46:05;;;;;;;;;;;;;;;8.70;100.00;99692.88;5109982;28;20333;-75
2022/02/07 11:48:37;;;;;;;;;;;;;;;8.72;100.00;99688.50;5074699;28;19927;-76
2022/02/07 11:51:09;;;;;;;;;;;;;;;8.79;100.00;99685.72;5108764;28;20431;-75
2022/02/07 11:53:45;;;;;;;;;;;;;;;8.78;100.00;99675.75;5109435;28;19972;-74
2022/02/07 11:56:20;;;;;;;;;;;;;;;8.94;100.00;99701.25;5113815;28;19923;-75
2022/02/07 11:59:02;;;;;;;;;;;;;;;8.65;100.00;99704.41;5113555;27;19923;-81
2022/02/07 12:01:48;;;;;;;;;;;;;;;8.51;100.00;99716.31;5095188;28;20014;-75
2022/02/07 12:04:30;;;;;;;;;;;;;;;8.49;100.00;99724.28;5113260;27;19948;-78
2022/02/07 12:07:07;;;;;;;;;;;;;;;8.54;100.00;99732.22;5099729;28;19924;-78
2022/02/07 12:09:34;;;;;;;;;;;;;;;8.48;100.00;99739.38;5113762;28;19929;-78
2022/02/07 12:12:02;;;;;;;;;;;;;;;8.53;100.00;99741.78;5095387;28;19923;-77
2022/02/07 12:14:30;;;;;;;;;;;;;;;8.53;100.00;99730.66;5096007;28;19924;-76
2022/02/07 12:16:58;;;;;;;;;;;;;;;8.24;100.00;99731.75;5113715;28;19967;-78
2022/02/07 12:19:35;;;;;;;;;;;;;;;8.14;100.00;99737.22;5096214;28;19924;-81
2022/02/07 12:22:13;;;;;;;;;;;;;;;8.32;100.00;99743.69;5114161;28;20010;-78
2022/02/07 12:24:52;;;;;;;;;;;;;;;8.64;100.00;99737.06;5095720;28;20022;-79
2022/02/07 12:27:22;;;;;;;;;;;;;;;8.61;100.00;99754.56;5114144;28;19924;-79
2022/02/07 12:30:15;;;;;;;;;;;;;;;8.26;100.00;99748.88;5079123;28;19924;-78
2022/02/07 12:32:38;;;;;;;;;;;;;;;8.39;100.00;99752.09;5113197;28;19931;-79
2022/02/07 12:35:06;;;;;;;;;;;;;;;8.38;100.00;99750.50;5095729;28;20009;-78
2022/02/07 12:37:37;;;;;;;;;;;;;;;8.35;100.00;99748.50;5078007;28;20321;-78
2022/02/07 12:40:05;;;;;;;;;;;;;;;8.22;100.00;99748.06;5113287;28;19924;-78
2022/02/07 12:42:32;;;;;;;;;;;;;;;8.35;100.00;99757.66;5113864;28;20390;-78
2022/02/07 12:45:00;;;;;;;;;;;;;;;8.45;100.00;99747.75;5113216;28;20469;-79
2022/02/07 12:47:31;;;;;;;;;;;;;;;8.23;100.00;99744.06;5111892;28;19924;-80
2022/02/07 12:50:08;;;;;;;;;;;;;;;8.18;100.00;99752.75;5113643;28;19924;-80
2022/02/07 12:52:37;;;;;;;;;;;;;;;8.45;100.00;99756.88;5133898;27;19923;-80
2022/02/07 12:55:05;;;;;;;;;;;;;;;8.11;100.00;99746.38;5134936;27;20447;-81
2022/02/07 12:57:36;;;;;;;;;;;;;;;8.30;100.00;99746.88;5114480;27;19923;-81
2022/02/07 13:00:04;;;;;;;;;;;;;;;8.23;100.00;99741.28;5110750;28;20379;-78
2022/02/07 13:02:32;;;;;;;;;;;;;;;8.16;100.00;99744.03;5095173;28;19951;-79
2022/02/07 13:04:59;;;;;;;;;;;;;;;8.35;100.00;99732.59;5068658;28;19924;-78
2022/02/07 13:07:31;;;;;;;;;;;;;;;8.35;100.00;99731.78;5111765;28;19930;-81
2022/02/07 13:09:58;;;;;;;;;;;;;;;8.43;100.00;99725.06;5114117;28;19931;-81
2022/02/07 13:12:50;;;;;;;;;;;;;;;8.59;100.00;99728.25;5113494;28;20393;-82
2022/02/07 13:15:23;;;;;;;;;;;;;;;8.62;100.00;99721.91;5078780;28;19976;-80
2022/02/07 13:17:53;;;;;;;;;;;;;;;8.51;100.00;99709.97;5095306;28;19924;-81
2022/02/07 13:20:25;;;;;;;;;;;;;;;8.53;100.00;99719.50;5113244;28;19924;-81
2022/02/07 13:23:03;;;;;;;;;;;;;;;8.84;100.00;99707.63;5078632;27;20259;-82
2022/02/07 13:25:37;;;;;;;;;;;;;;;8.75;100.00;99710.00;5110317;28;19930;-81
2022/02/07 13:28:04;;;;;;;;;;;;;;;8.79;100.00;99707.22;5083682;27;19925;-82
2022/02/07 13:30:37;;;;;;;;;;;;;;;8.85;100.00;99703.66;5134166;27;19924;-81
2022/02/07 13:33:05;;;;;;;;;;;;;;;9.27;100.00;99700.06;5134558;27;19959;-82
2022/02/07 13:35:35;;;;;;;;;;;;;;;9.31;100.00;99697.28;5133571;27;19931;-82
2022/02/07 13:38:06;;;;;;;;;;;;;;;9.39;100.00;99696.06;5133361;27;19959;-80
2022/02/07 13:40:39;;;;;;;;;;;;;;;9.33;100.00;99694.88;5133753;27;20370;-81
2022/02/07 13:43:19;;;;;;;;;;;;;;;9.31;100.00;99689.72;5133536;27;19930;-78
2022/02/07 13:45:48;;;;;;;;;;;;;;;9.40;100.00;99692.06;5132764;27;19969;-79
2022/02/07 13:48:16;;;;;;;;;;;;;;;9.64;100.00;99680.06;5114380;27;20046;-81
2022/02/07 13:50:45;;;;;;;;;;;;;;;9.52;100.00;99669.34;5114607;27;19945;-79
2022/02/07 13:53:14;;;;;;;;;;;;;;;9.62;100.00;99663.75;5133726;27;20312;-80
2022/02/07 13:55:42;;;;;;;;;;;;;;;9.29;100.00;99657.81;5133305;27;19931;-80
2022/02/07 13:58:10;;;;;;;;;;;;;;;9.18;100.00;99664.22;5132865;27;19931;-80
2022/02/07 14:00:53;;;;;;;;;;;;;;;9.08;100.00;99667.03;5132801;27;19924;-79
2022/02/07 14:03:32;;;;;;;;;;;;;;;8.89;100.00;99657.06;5132526;27;19923;-80
2022/02/07 14:06:15;;;;;;;;;;;;;;;8.99;100.00;99661.84;5127993;27;20332;-81
2022/02/07 14:08:49;;;;;;;;;;;;;;;8.72;100.00;99654.28;5101283;28;20367;-82
2022/02/07 14:11:21;;;;;;;;;;;;;;;9.04;100.00;99655.84;5076858;28;20290;-80
2022/02/07 14:13:50;;;;;;;;;;;;;;;8.77;100.00;99648.28;5094008;28;20302;-79
2022/02/07 14:16:23;;;;;;;;;;;;;;;8.69;100.00;99650.28;5112680;28;20007;-80
2022/02/07 14:18:51;;;;;;;;;;;;;;;8.80;100.00;99644.72;5093525;28;19934;-80
2022/02/07 14:21:19;;;;;;;;;;;;;;;8.90;100.00;99635.56;5111898;28;19927;-80
2022/02/07 14:23:47;;;;;;;;;;;;;;;8.76;100.00;99622.44;5125349;27;19976;-80
2022/02/07 14:26:37;;;;;;;;;;;;;;;8.86;100.00;99621.63;5113946;27;19930;-79
2022/02/07 14:29:05;;;;;;;;;;;;;;;8.82;100.00;99615.28;5132442;27;19923;-80
2022/02/07 14:31:32;;;;;;;;;;;;;;;8.90;100.00;99622.44;5097755;27;19998;-80
2022/02/07 14:34:00;;;;;;;;;;;;;;;9.14;100.00;99627.19;5131919;27;20390;-81
2022/02/07 14:36:29;;;;;;;;;;;;;;;9.41;100.00;99646.25;5132019;27;20030;-81
2022/02/07 14:38:56;;;;;;;;;;;;;;;9.96;100.00;99639.72;5130953;27;19924;-79
2022/02/07 14:41:24;;;;;;;;;;;;;;;10.18;100.00;99634.81;5092248;28;19923;-79
2022/02/07 14:43:59;;;;;;;;;;;;;;;10.36;100.00;99635.53;5131451;27;19962;-80
2022/02/07 14:46:33;;;;;;;;;;;;;;;10.14;100.00;99628.47;5123262;27;19973;-79
2022/02/07 14:49:03;;;;;;;;;;;;;;;10.02;100.00;99612.16;5077041;28;19924;-79
2022/02/07 14:51:30;;;;;;;;;;;;;;;10.12;100.00;99614.09;5093638;28;19924;-82
2022/02/07 14:53:57;;;;;;;;;;;;;;;10.33;100.00;99620.38;5060348;28;19953;-83
2022/02/07 14:56:25;;;;;;;;;;;;;;;10.38;100.00;99616.34;5111940;28;20363;-84
2022/02/07 14:58:53;;;;;;;;;;;;;;;10.54;100.00;99611.84;5076575;28;19931;-83
2022/02/07 15:01:20;;;;;;;;;;;;;;;10.25;100.00;99609.66;5076608;28;20022;-80
2022/02/07 15:03:49;;;;;;;;;;;;;;;10.31;100.00;99603.25;5112087;28;19928;-81
2022/02/07 15:06:17;;;;;;;;;;;;;;;10.58;100.00;99597.84;5111599;28;19976;-81
2022/02/07 15:08:45;;;;;;;;;;;;;;;10.43;100.00;99593.59;5093222;28;20427;-81
2022/02/07 15:11:16;;;;;;;;;;;;;;;10.49;100.00;99605.91;5093498;28;19923;-81
2022/02/07 15:13:43;;;;;;;;;;;;;;;10.36;100.00;99602.03;5060356;28;20378;-81
2022/02/07 15:16:10;;;;;;;;;;;;;;;10.41;100.00;99615.53;5111310;28;19930;-81
2022/02/07 15:18:39;;;;;;;;;;;;;;;10.47;100.00;99613.91;5059648;28;19931;-81
2022/02/07 15:21:07;;;;;;;;;;;;;;;10.63;100.00;99617.00;5093694;28;19923;-81
2022/02/07 15:23:37;;;;;;;;;;;;;;;10.71;100.00;99618.50;5093140;28;20012;-81
2022/02/07 15:26:05;;;;;;;;;;;;;;;10.86;100.00;99611.59;5111272;28;19927;-81
2022/02/07 15:28:32;;;;;;;;;;;;;;;10.87;100.00;99613.19;5112834;28;19931;-81
2022/02/07 15:31:00;;;;;;;;;;;;;;;10.66;100.00;99610.59;5080408;28;20286;-81
2022/02/07 15:33:37;;;;;;;;;;;;;;;10.46;100.00;99601.13;5115399;28;19950;-81
2022/02/07 15:36:04;;;;;;;;;;;;;;;10.52;100.00;99603.09;5115849;28;19930;-80
2022/02/07 15:38:33;;;;;;;;;;;;;;;10.49;100.00;99597.53;5099915;28;19947;-82